Time;durP1;ratioP1;P1;durP2;ratioP2;P2;SDS_P1;SDS_P2;PMS_P1;PMS_P2;Temp;Humidity;BMP_temperature;BMP_pressure;BME280_temperature;BME280_humidity;BME280_pressure;Samples;Min_cycle;Max_cycle;Signal;HPM_P1;HPM_P2
2023/03/19 00:03:01;;;;;;;14.52;12.55;;;;;;;9.79;100.00;101168.53;10237834;28;20140;-73
2023/03/19 00:07:58;;;;;;;12.05;10.77;;;;;;;9.73;100.00;101181.47;10230854;28;20037;-73
2023/03/19 00:12:54;;;;;;;12.48;11.27;;;;;;;9.77;100.00;101187.97;10229245;28;20083;-73
2023/03/19 00:17:51;;;;;;;13.55;12.00;;;;;;;9.86;100.00;101185.31;10235563;28;20041;-73
2023/03/19 00:22:47;;;;;;;12.60;11.15;;;;;;;9.87;100.00;101190.50;10226496;28;20377;-73
2023/03/19 00:27:44;;;;;;;14.05;12.48;;;;;;;9.87;100.00;101187.75;10233924;28;20072;-73
2023/03/19 00:32:40;;;;;;;14.05;11.75;;;;;;;9.84;100.00;101206.66;10232174;28;20518;-73
2023/03/19 00:37:37;;;;;;;13.07;11.63;;;;;;;9.81;100.00;101205.34;10235269;28;20522;-73
2023/03/19 00:42:33;;;;;;;12.23;10.82;;;;;;;9.70;100.00;101198.47;10227439;28;20561;-73
2023/03/19 00:47:31;;;;;;;12.20;10.98;;;;;;;9.63;100.00;101208.94;10229901;28;20765;-73
2023/03/19 00:52:27;;;;;;;13.43;11.63;;;;;;;9.56;100.00;101205.78;10227112;28;20128;-74
2023/03/19 00:57:24;;;;;;;16.38;11.25;;;;;;;9.42;100.00;101209.31;10229532;28;20422;-74
2023/03/19 01:02:20;;;;;;;13.18;11.88;;;;;;;9.29;100.00;101220.16;10232687;28;20052;-75
2023/03/19 01:07:16;;;;;;;12.18;10.88;;;;;;;9.34;100.00;101223.63;10234302;28;20080;-74
2023/03/19 01:12:13;;;;;;;11.98;10.23;;;;;;;9.31;100.00;101217.94;10224689;28;20128;-74
2023/03/19 01:17:09;;;;;;;12.45;10.95;;;;;;;9.39;100.00;101220.78;10234764;28;20084;-75
2023/03/19 01:22:06;;;;;;;14.35;10.82;;;;;;;9.36;100.00;101226.84;10233214;28;20076;-74
2023/03/19 01:27:04;;;;;;;14.65;10.50;;;;;;;9.31;100.00;101218.75;10229769;28;20454;-74
2023/03/19 01:32:00;;;;;;;11.18;10.07;;;;;;;9.23;100.00;101219.41;10232891;28;20525;-74
2023/03/19 01:36:57;;;;;;;12.65;10.32;;;;;;;9.20;100.00;101217.28;10230411;28;20571;-75
2023/03/19 01:41:53;;;;;;;12.95;10.10;;;;;;;9.20;100.00;101222.75;10225660;28;20570;-75
2023/03/19 01:46:50;;;;;;;11.10;9.77;;;;;;;9.21;100.00;101211.53;10231357;28;20064;-75
2023/03/19 01:51:47;;;;;;;10.25;9.02;;;;;;;9.26;100.00;101216.13;10228727;28;20046;-74
2023/03/19 01:56:47;;;;;;;11.75;9.45;;;;;;;9.14;100.00;101218.47;10224982;28;20056;-74
2023/03/19 02:01:55;;;;;;;12.55;10.00;;;;;;;9.13;100.00;101222.31;10232831;28;20057;-74
2023/03/19 02:06:55;;;;;;;9.98;9.07;;;;;;;9.06;100.00;101207.13;10223219;28;20491;-75
2023/03/19 02:11:52;;;;;;;11.88;9.63;;;;;;;8.96;100.00;101204.56;10229047;28;21264;-73
2023/03/19 02:16:48;;;;;;;10.27;9.32;;;;;;;8.93;100.00;101213.28;10231320;28;20401;-73
2023/03/19 02:21:45;;;;;;;12.23;9.65;;;;;;;8.92;100.00;101217.16;10229148;28;20476;-75
2023/03/19 02:26:44;;;;;;;10.02;9.00;;;;;;;8.88;100.00;101207.91;10227158;28;20097;-75
2023/03/19 02:31:40;;;;;;;9.40;8.52;;;;;;;8.78;100.00;101216.25;10231395;28;20064;-74
2023/03/19 02:36:43;;;;;;;8.77;7.97;;;;;;;8.64;100.00;101211.50;10224319;28;20046;-75
2023/03/19 02:41:40;;;;;;;10.00;8.43;;;;;;;8.57;100.00;101211.06;10220036;28;20431;-75
2023/03/19 02:46:37;;;;;;;9.07;8.18;;;;;;;8.46;100.00;101208.75;10221369;28;20454;-74
2023/03/19 02:51:34;;;;;;;8.68;7.88;;;;;;;8.40;100.00;101216.16;10228732;28;20057;-73
2023/03/19 02:56:34;;;;;;;11.18;8.73;;;;;;;8.29;100.00;101225.56;10223432;28;20042;-73
2023/03/19 03:01:31;;;;;;;8.70;7.90;;;;;;;8.19;100.00;101226.47;10231618;28;20053;-73
2023/03/19 03:06:27;;;;;;;9.15;8.32;;;;;;;8.13;100.00;101214.81;10232378;28;20514;-75
2023/03/19 03:11:24;;;;;;;11.18;8.15;;;;;;;8.10;100.00;101218.13;10231973;28;20140;-75
2023/03/19 03:16:21;;;;;;;9.38;8.38;;;;;;;8.06;100.00;101222.53;10225382;28;20049;-75
2023/03/19 03:21:20;;;;;;;8.45;7.57;;;;;;;8.06;100.00;101216.28;10236092;28;20041;-75
2023/03/19 03:26:16;;;;;;;8.23;7.53;;;;;;;8.03;100.00;101223.13;10231837;28;20590;-75
2023/03/19 03:31:13;;;;;;;8.48;7.57;;;;;;;8.00;100.00;101218.22;10229036;28;20069;-74
2023/03/19 03:36:10;;;;;;;8.82;8.02;;;;;;;7.99;100.00;101227.50;10230028;28;20065;-75
2023/03/19 03:41:06;;;;;;;9.00;8.10;;;;;;;7.92;100.00;101222.41;10236492;28;20387;-74
2023/03/19 03:46:07;;;;;;;9.30;8.40;;;;;;;7.96;100.00;101228.06;10233917;28;20141;-75
2023/03/19 03:51:04;;;;;;;8.50;7.70;;;;;;;7.87;100.00;101213.47;10235265;28;20626;-74
2023/03/19 03:56:01;;;;;;;8.88;8.02;;;;;;;7.87;100.00;101213.47;10222620;28;20072;-74
2023/03/19 04:00:57;;;;;;;8.93;8.10;;;;;;;7.87;100.00;101213.47;10232911;28;20168;-73
2023/03/19 04:05:54;;;;;;;9.65;8.50;;;;;;;7.83;100.00;101215.16;10227458;28;21645;-73
2023/03/19 04:10:50;;;;;;;8.88;8.07;;;;;;;7.82;100.00;101216.22;10233751;28;20124;-73
2023/03/19 04:15:47;;;;;;;8.40;7.53;;;;;;;7.78;100.00;101205.13;10233950;28;20042;-72
2023/03/19 04:20:43;;;;;;;10.13;8.48;;;;;;;7.79;100.00;101218.41;10232711;28;20049;-74
2023/03/19 04:25:40;;;;;;;9.82;8.45;;;;;;;7.78;100.00;101227.69;10225681;28;20041;-74
2023/03/19 04:30:36;;;;;;;9.18;8.15;;;;;;;7.82;100.00;101221.66;10231887;28;20049;-75
2023/03/19 04:35:33;;;;;;;8.80;8.00;;;;;;;7.78;100.00;101224.97;10226472;28;20056;-75
2023/03/19 04:40:30;;;;;;;8.50;7.70;;;;;;;7.77;100.00;101215.19;10224508;28;20053;-73
2023/03/19 04:45:27;;;;;;;9.70;8.65;;;;;;;7.79;100.00;101223.88;10232712;28;20087;-72
2023/03/19 04:50:23;;;;;;;9.45;8.55;;;;;;;7.84;100.00;101225.72;10228008;28;20056;-74
2023/03/19 04:55:20;;;;;;;8.88;8.07;;;;;;;7.88;100.00;101226.78;10227597;28;20129;-74
2023/03/19 05:00:17;;;;;;;10.65;9.43;;;;;;;8.10;100.00;101233.63;10227604;28;20136;-74
2023/03/19 05:05:13;;;;;;;9.82;8.93;;;;;;;8.20;100.00;101234.34;10217972;28;20065;-74
2023/03/19 05:10:10;;;;;;;9.55;8.68;;;;;;;8.33;100.00;101226.59;10227793;28;20547;-74
2023/03/19 05:15:07;;;;;;;9.27;8.38;;;;;;;8.37;100.00;101233.09;10219860;28;20041;-74
2023/03/19 05:20:04;;;;;;;10.40;9.40;;;;;;;8.43;100.00;101240.13;10230003;28;20054;-73
2023/03/19 05:25:01;;;;;;;10.05;9.05;;;;;;;8.45;100.00;101246.09;10228743;28;20423;-74
2023/03/19 05:29:59;;;;;;;10.15;9.25;;;;;;;8.53;100.00;101239.19;10225510;28;20510;-74
2023/03/19 05:34:55;;;;;;;12.40;11.07;;;;;;;8.55;100.00;101240.53;10227297;28;20119;-74
2023/03/19 05:39:51;;;;;;;11.20;10.20;;;;;;;8.48;100.00;101233.81;10229238;28;20049;-74
2023/03/19 05:44:48;;;;;;;10.98;10.00;;;;;;;8.39;100.00;101228.97;10224734;28;20570;-74
2023/03/19 05:49:45;;;;;;;10.88;9.88;;;;;;;8.39;100.00;101237.13;10226210;28;20038;-74
2023/03/19 05:54:41;;;;;;;11.75;10.55;;;;;;;8.37;100.00;101241.25;10227857;28;20107;-74
2023/03/19 05:59:38;;;;;;;12.38;11.10;;;;;;;8.39;100.00;101236.31;10238771;28;20050;-74
2023/03/19 06:04:34;;;;;;;12.15;10.95;;;;;;;8.37;100.00;101243.97;10215970;28;20049;-73
2023/03/19 06:09:30;;;;;;;12.13;11.02;;;;;;;8.50;100.00;101242.50;10221961;28;20068;-74
2023/03/19 06:14:27;;;;;;;13.57;11.65;;;;;;;8.53;100.00;101259.06;10221225;28;20630;-74
2023/03/19 06:19:23;;;;;;;12.70;11.38;;;;;;;8.71;100.00;101270.34;10223238;28;20137;-75
2023/03/19 06:24:20;;;;;;;12.65;11.05;;;;;;;8.74;100.00;101269.75;10218416;28;20099;-74
2023/03/19 06:29:16;;;;;;;12.30;11.00;;;;;;;8.78;100.00;101268.88;10223244;28;20045;-73
2023/03/19 06:34:13;;;;;;;12.60;11.15;;;;;;;8.91;100.00;101270.09;10218893;28;20042;-75
2023/03/19 06:39:09;;;;;;;12.75;11.07;;;;;;;9.02;100.00;101268.81;10238277;28;20064;-75
2023/03/19 06:44:06;;;;;;;12.48;11.35;;;;;;;9.08;100.00;101274.22;10216196;28;20726;-75
2023/03/19 06:49:02;;;;;;;13.73;12.30;;;;;;;9.17;100.00;101283.38;10224615;28;20144;-74
2023/03/19 06:53:59;;;;;;;12.73;11.10;;;;;;;9.31;100.00;101278.78;10225409;28;20045;-75
2023/03/19 06:58:55;;;;;;;13.45;12.15;;;;;;;9.45;100.00;101290.59;10229385;28;20772;-74
2023/03/19 07:03:52;;;;;;;14.88;12.75;;;;;;;9.61;100.00;101287.63;10223071;28;20120;-76
2023/03/19 07:08:48;;;;;;;14.35;12.88;;;;;;;9.78;100.00;101289.81;10217612;28;20211;-76
2023/03/19 07:13:45;;;;;;;13.50;12.20;;;;;;;9.94;100.00;101288.44;10221820;28;20566;-76
2023/03/19 07:18:41;;;;;;;14.32;12.85;;;;;;;10.06;100.00;101290.69;10218900;28;20084;-75
2023/03/19 07:23:39;;;;;;;12.57;11.30;;;;;;;10.20;100.00;101294.25;10223089;28;20099;-75
2023/03/19 07:28:35;;;;;;;13.68;12.23;;;;;;;10.39;100.00;101296.13;10218620;28;20073;-75
2023/03/19 07:33:32;;;;;;;14.00;12.10;;;;;;;10.48;100.00;101284.19;10225702;28;20038;-75
2023/03/19 07:38:29;;;;;;;13.52;12.07;;;;;;;10.67;100.00;101286.81;10222583;28;20048;-75
2023/03/19 07:43:25;;;;;;;12.15;10.85;;;;;;;10.95;100.00;101289.53;10226194;28;20046;-75
2023/03/19 07:48:22;;;;;;;11.20;10.10;;;;;;;11.09;100.00;101293.09;10232943;28;20084;-74
2023/03/19 07:53:19;;;;;;;12.40;11.10;;;;;;;11.13;100.00;101294.06;10223929;28;20426;-72
2023/03/19 07:58:15;;;;;;;14.32;10.98;;;;;;;11.15;100.00;101286.34;10220593;28;20043;-73
2023/03/19 08:03:12;;;;;;;12.25;10.60;;;;;;;11.25;100.00;101282.56;10226283;28;20057;-74
2023/03/19 08:08:09;;;;;;;11.52;10.32;;;;;;;11.36;100.00;101281.22;10228432;28;20069;-75
2023/03/19 08:13:05;;;;;;;11.35;10.35;;;;;;;11.53;100.00;101282.50;10219872;28;20138;-75
2023/03/19 08:18:03;;;;;;;13.15;11.00;;;;;;;11.64;100.00;101291.28;10221002;28;20034;-75
2023/03/19 08:23:00;;;;;;;13.00;10.50;;;;;;;11.62;100.00;101286.09;10229455;28;20057;-75
2023/03/19 08:27:58;;;;;;;12.88;10.32;;;;;;;11.69;100.00;101280.19;10222162;28;20664;-76
2023/03/19 08:32:55;;;;;;;11.15;10.02;;;;;;;11.72;100.00;101276.81;10223798;28;21331;-74
2023/03/19 08:37:52;;;;;;;10.82;9.70;;;;;;;11.92;100.00;101276.34;10230238;28;20565;-74
2023/03/19 08:42:49;;;;;;;11.25;10.13;;;;;;;12.09;100.00;101274.81;10225091;28;20042;-74
2023/03/19 08:47:46;;;;;;;11.98;9.88;;;;;;;12.25;100.00;101284.25;10227451;28;20038;-73
2023/03/19 08:52:43;;;;;;;11.30;9.18;;;;;;;12.18;100.00;101279.25;10224852;28;20052;-75
2023/03/19 08:57:39;;;;;;;11.10;8.95;;;;;;;12.22;100.00;101287.63;10226499;28;20048;-73
2023/03/19 09:02:36;;;;;;;10.57;9.25;;;;;;;12.15;100.00;101292.75;10230373;28;20041;-74
2023/03/19 09:07:32;;;;;;;9.63;8.68;;;;;;;12.23;100.00;101297.50;10223520;28;20120;-73
2023/03/19 09:12:31;;;;;;;12.38;8.35;;;;;;;12.39;100.00;101290.47;10234451;28;20050;-73
2023/03/19 09:17:28;;;;;;;10.15;9.13;;;;;;;12.35;100.00;101284.00;10229686;28;20134;-72
2023/03/19 09:22:25;;;;;;;10.50;8.98;;;;;;;12.61;100.00;101291.53;10237199;28;20152;-73
2023/03/19 09:27:22;;;;;;;8.98;8.05;;;;;;;12.95;100.00;101279.00;10229794;28;20092;-72
2023/03/19 09:32:19;;;;;;;8.93;7.45;;;;;;;13.58;100.00;101274.88;10227132;28;20418;-72
2023/03/19 09:37:15;;;;;;;9.70;7.63;;;;;;;14.13;100.00;101272.50;10228076;28;20060;-73
2023/03/19 09:42:30;;;;;;;8.15;7.35;;;;;;;14.16;100.00;101277.38;10228900;28;20088;-73
2023/03/19 09:47:31;;;;;;;7.13;6.43;;;;;;;14.06;100.00;101284.84;10226840;28;20543;-73
2023/03/19 09:52:40;;;;;;;7.50;6.80;;;;;;;14.26;100.00;101271.50;10226006;28;20068;-72
2023/03/19 09:57:37;;;;;;;8.93;7.88;;;;;;;14.91;100.00;101270.22;10222435;28;20611;-72
2023/03/19 10:02:42;;;;;;;8.02;7.22;;;;;;;14.88;100.00;101265.41;10221910;28;20088;-72
2023/03/19 10:08:04;;;;;;;8.50;6.97;;;;;;;14.93;100.00;101267.94;10225511;28;20118;-72
2023/03/19 10:13:22;;;;;;;8.60;7.80;;;;;;;14.90;100.00;101268.63;10225721;28;20053;-72
2023/03/19 10:18:34;;;;;;;7.80;7.10;;;;;;;15.05;100.00;101269.97;10213323;28;20048;-73
2023/03/19 10:23:52;;;;;;;7.50;6.80;;;;;;;14.86;100.00;101267.69;10224196;28;20074;-72
2023/03/19 10:29:02;;;;;;;7.50;6.75;;;;;;;15.27;100.00;101271.59;10220022;28;20045;-72
2023/03/19 10:34:14;;;;;;;7.93;7.22;;;;;;;15.17;100.00;101266.47;10228397;28;20061;-72
2023/03/19 10:39:14;;;;;;;7.87;7.07;;;;;;;15.99;100.00;101265.94;10217048;28;20053;-73
2023/03/19 10:44:27;;;;;;;7.90;7.05;;;;;;;17.17;100.00;101249.59;10217710;28;20052;-73
2023/03/19 10:49:24;;;;;;;8.10;7.10;;;;;;;17.76;100.00;101235.06;10215055;28;20041;-73
2023/03/19 10:54:25;;;;;;;8.02;7.32;;;;;;;17.64;100.00;101244.25;10215695;28;20048;-74
2023/03/19 10:59:24;;;;;;;8.27;7.17;;;;;;;17.03;100.00;101238.91;10215055;28;20141;-74
2023/03/19 11:04:21;;;;;;;8.80;7.10;;;;;;;16.94;100.00;101236.31;10223888;28;20076;-73
2023/03/19 11:09:31;;;;;;;7.25;6.55;;;;;;;16.57;100.00;101244.63;10216697;28;20454;-75
2023/03/19 11:14:35;;;;;;;7.72;7.00;;;;;;;15.71;100.00;101243.66;10221534;28;20050;-75
2023/03/19 11:19:39;;;;;;;7.32;6.70;;;;;;;15.45;100.00;101249.41;10230832;28;20132;-74
2023/03/19 11:24:41;;;;;;;9.75;6.90;;;;;;;15.90;100.00;101248.69;10225790;28;20045;-74
2023/03/19 11:29:43;;;;;;;7.50;6.60;;;;;;;16.76;100.00;101234.94;10227755;28;20077;-73
2023/03/19 11:34:58;;;;;;;9.90;8.63;;;;;;;16.59;100.00;101234.03;10225107;28;20065;-73
2023/03/19 11:40:39;;;;;;;8.63;7.82;;;;;;;16.45;100.00;101239.06;10229999;28;20501;-73
2023/03/19 11:46:04;;;;;;;6.95;6.35;;;;;;;16.41;100.00;101236.22;10104149;28;20050;-73
2023/03/19 11:51:04;;;;;;;7.25;6.65;;;;;;;16.67;100.00;101237.00;10199029;28;20056;-73
2023/03/19 11:56:32;;;;;;;8.43;7.63;;;;;;;16.47;100.00;101241.50;10228429;28;20051;-74
2023/03/19 12:01:48;;;;;;;10.13;7.78;;;;;;;16.08;100.00;101239.06;10219940;28;20046;-74
2023/03/19 12:06:53;;;;;;;12.32;7.70;;;;;;;15.74;100.00;101240.25;10224614;28;20065;-74
2023/03/19 12:12:16;;;;;;;9.75;8.75;;;;;;;15.38;100.00;101243.63;10225063;28;20637;-75
2023/03/19 12:17:33;;;;;;;8.98;8.10;;;;;;;15.11;100.00;101243.06;10226762;28;20046;-75
2023/03/19 12:22:47;;;;;;;10.57;8.02;;;;;;;14.98;100.00;101246.88;10219311;28;20073;-73
2023/03/19 12:28:15;;;;;;;9.23;8.43;;;;;;;15.01;100.00;101255.25;10220181;28;20037;-73
2023/03/19 12:33:35;;;;;;;12.63;8.80;;;;;;;14.84;100.00;101250.69;10228920;28;20140;-74
2023/03/19 12:38:47;;;;;;;9.23;8.27;;;;;;;14.82;100.00;101261.22;10228803;28;20096;-75
2023/03/19 12:43:48;;;;;;;11.32;8.88;;;;;;;15.00;100.00;101255.59;10221470;28;20045;-75
2023/03/19 12:49:17;;;;;;;10.00;8.83;;;;;;;15.07;100.00;101255.88;10225553;28;20049;-74
2023/03/19 12:54:21;;;;;;;9.35;8.38;;;;;;;15.24;100.00;101261.25;10213283;28;20041;-74
2023/03/19 12:59:36;;;;;;;9.65;8.75;;;;;;;15.23;100.00;101262.41;10226361;28;20052;-74
2023/03/19 13:04:41;;;;;;;9.77;8.77;;;;;;;15.49;100.00;101244.84;10223954;28;20047;-73
2023/03/19 13:09:43;;;;;;;9.98;7.60;;;;;;;15.33;100.00;101259.22;10224723;28;20040;-73
2023/03/19 13:14:52;;;;;;;8.30;7.50;;;;;;;15.14;100.00;101256.16;10226524;28;20064;-73
2023/03/19 13:19:52;;;;;;;7.53;6.82;;;;;;;14.86;100.00;101256.66;10230451;28;20038;-74
2023/03/19 13:24:52;;;;;;;7.53;6.68;;;;;;;14.69;100.00;101252.06;10230327;28;20523;-73
2023/03/19 13:30:08;;;;;;;7.70;6.97;;;;;;;14.65;100.00;101258.56;10215845;28;20048;-73
2023/03/19 13:35:30;;;;;;;8.38;7.40;;;;;;;14.65;100.00;101258.56;10233720;28;20061;-73
2023/03/19 13:40:55;;;;;;;8.98;7.43;;;;;;;14.73;100.00;101246.69;10228814;28;20165;-74
2023/03/19 13:46:04;;;;;;;8.45;7.65;;;;;;;14.90;100.00;101246.59;10225395;28;20486;-73
2023/03/19 13:51:03;;;;;;;9.05;7.03;;;;;;;14.48;100.00;101254.75;10225200;28;20804;-74
2023/03/19 13:56:03;;;;;;;8.60;7.70;;;;;;;14.18;100.00;101250.31;10212396;28;20053;-73
2023/03/19 14:01:05;;;;;;;9.75;7.40;;;;;;;14.15;100.00;101251.78;10222680;28;20078;-73
2023/03/19 14:06:02;;;;;;;7.88;7.07;;;;;;;13.80;100.00;101270.31;10224712;28;20092;-74
2023/03/19 14:11:02;;;;;;;14.20;9.48;;;;;;;12.75;100.00;101325.13;10218613;28;20057;-74
2023/03/19 14:16:05;;;;;;;8.90;6.63;;;;;;;12.48;100.00;101348.09;10220492;28;20056;-73
2023/03/19 14:21:05;;;;;;;8.05;6.75;;;;;;;12.67;100.00;101361.59;10227302;28;20611;-73
2023/03/19 14:26:21;;;;;;;9.88;7.28;;;;;;;12.57;100.00;101361.84;10208277;28;20075;-74
2023/03/19 14:31:31;;;;;;;9.40;6.85;;;;;;;12.66;100.00;101370.94;10222443;28;20136;-74
2023/03/19 14:36:29;;;;;;;8.90;7.88;;;;;;;12.63;100.00;101368.81;10220440;28;20503;-74
2023/03/19 14:41:31;;;;;;;10.18;8.43;;;;;;;12.67;100.00;101378.06;10224609;28;20047;-74
2023/03/19 14:46:40;;;;;;;9.90;8.00;;;;;;;12.85;100.00;101385.22;10217330;28;20123;-74
2023/03/19 14:51:49;;;;;;;8.75;7.38;;;;;;;12.94;100.00;101389.94;10221612;28;20132;-74
2023/03/19 14:56:46;;;;;;;10.45;9.32;;;;;;;13.02;100.00;101394.66;10229256;28;20041;-74
2023/03/19 15:01:48;;;;;;;8.65;7.75;;;;;;;13.03;100.00;101402.56;10229583;28;20106;-75
2023/03/19 15:06:57;;;;;;;9.38;8.38;;;;;;;12.94;100.00;101400.91;10223361;28;20047;-74
2023/03/19 15:12:09;;;;;;;10.20;8.70;;;;;;;12.94;100.00;101403.66;10236397;28;20045;-74
2023/03/19 15:17:14;;;;;;;12.55;9.63;;;;;;;12.82;100.00;101407.00;10234725;28;20048;-74
2023/03/19 15:22:14;;;;;;;12.07;8.68;;;;;;;12.71;100.00;101411.13;10230503;28;20071;-74
2023/03/19 15:27:22;;;;;;;9.85;8.82;;;;;;;12.62;100.00;101402.84;10230668;28;20475;-74
2023/03/19 15:32:38;;;;;;;13.52;9.18;;;;;;;12.46;100.00;101366.00;10220639;28;20045;-73
2023/03/19 15:37:58;;;;;;;12.20;10.25;;;;;;;12.32;100.00;101358.69;10222784;28;20051;-72
2023/03/19 15:42:59;;;;;;;11.35;9.50;;;;;;;12.16;100.00;101365.66;10228189;28;22183;-72
2023/03/19 15:48:15;;;;;;;14.35;12.02;;;;;;;12.07;100.00;101367.50;10230699;28;20562;-72
2023/03/19 15:53:18;;;;;;;19.98;15.20;;;;;;;12.10;100.00;101359.50;10217002;28;20072;-72
2023/03/19 15:58:24;;;;;;;20.40;15.02;;;;;;;12.24;100.00;101370.38;10230950;28;20072;-72
2023/03/19 16:03:27;;;;;;;15.27;13.63;;;;;;;12.41;100.00;101373.22;10223027;28;20042;-72
2023/03/19 16:08:27;;;;;;;14.63;12.80;;;;;;;12.53;100.00;101371.81;10223682;28;20772;-71
2023/03/19 16:13:37;;;;;;;18.15;13.95;;;;;;;12.45;100.00;101375.34;10225312;28;20056;-72
2023/03/19 16:19:01;;;;;;;14.82;13.00;;;;;;;13.84;100.00;101364.75;10226773;28;20092;-72
2023/03/19 16:24:01;;;;;;;17.73;13.15;;;;;;;14.21;100.00;101351.44;10228571;28;20080;-72
2023/03/19 16:29:33;;;;;;;14.85;12.40;;;;;;;13.88;100.00;101349.22;10224458;28;20056;-72
2023/03/19 16:34:45;;;;;;;15.90;13.45;;;;;;;13.21;100.00;101354.00;10223219;28;20124;-73
2023/03/19 16:39:53;;;;;;;16.88;13.88;;;;;;;12.89;100.00;101370.88;10219538;28;20045;-73
2023/03/19 16:44:49;;;;;;;16.70;14.07;;;;;;;12.61;100.00;101374.63;10227069;28;20050;-72
2023/03/19 16:49:46;;;;;;;15.10;13.00;;;;;;;12.38;100.00;101382.09;10227500;28;20538;-72
2023/03/19 16:54:43;;;;;;;15.75;12.50;;;;;;;12.26;100.00;101395.56;10220245;28;20798;-72
2023/03/19 16:59:41;;;;;;;21.45;13.43;;;;;;;12.12;100.00;101401.09;10224165;28;20439;-73
2023/03/19 17:04:38;;;;;;;18.50;13.60;;;;;;;11.94;100.00;101405.63;10218610;28;20080;-73
2023/03/19 17:09:35;;;;;;;14.93;13.32;;;;;;;11.84;100.00;101422.31;10224721;28;20049;-73
2023/03/19 17:14:33;;;;;;;17.90;14.10;;;;;;;11.71;100.00;101415.72;10218999;28;20052;-72
2023/03/19 17:19:34;;;;;;;18.48;14.48;;;;;;;11.61;100.00;101423.38;10229137;28;20534;-72
2023/03/19 17:24:33;;;;;;;16.45;14.30;;;;;;;11.42;100.00;101427.06;10226224;28;20041;-74
2023/03/19 17:29:30;;;;;;;18.50;15.15;;;;;;;11.40;100.00;101429.28;10224336;28;20041;-73
2023/03/19 17:34:32;;;;;;;16.92;14.52;;;;;;;11.12;100.00;101442.97;10224212;28;20095;-73
2023/03/19 17:39:35;;;;;;;22.77;18.30;;;;;;;10.98;100.00;101444.91;10257581;28;20635;-73
2023/03/19 17:44:31;;;;;;;22.90;18.15;;;;;;;10.87;100.00;101449.75;10248732;28;20080;-72
2023/03/19 17:49:30;;;;;;;24.63;19.73;;;;;;;10.73;100.00;101460.66;10242310;28;20054;-72
2023/03/19 17:54:27;;;;;;;21.65;19.35;;;;;;;10.62;100.00;101469.34;10246917;28;20578;-73
2023/03/19 17:59:23;;;;;;;24.63;18.45;;;;;;;10.52;100.00;101475.81;10241374;28;20076;-72
2023/03/19 18:04:21;;;;;;;24.58;20.65;;;;;;;10.37;100.00;101468.66;10237242;28;20126;-72
2023/03/19 18:09:24;;;;;;;24.23;21.33;;;;;;;10.23;100.00;101471.28;10240412;28;20628;-72
2023/03/19 18:14:20;;;;;;;23.20;20.73;;;;;;;10.11;100.00;101482.66;10237632;28;20054;-72
2023/03/19 18:19:23;;;;;;;24.00;20.60;;;;;;;9.99;100.00;101490.50;10242831;28;20073;-72
2023/03/19 18:24:20;;;;;;;24.90;22.20;;;;;;;9.89;100.00;101493.41;10225683;28;20065;-73
2023/03/19 18:29:16;;;;;;;26.63;21.73;;;;;;;9.74;100.00;101488.94;10240400;28;20052;-74
2023/03/19 18:34:15;;;;;;;24.02;21.02;;;;;;;9.64;100.00;101489.06;10246870;28;20046;-73
2023/03/19 18:39:13;;;;;;;26.08;21.40;;;;;;;9.53;100.00;101498.50;10237218;28;20150;-73
2023/03/19 18:44:11;;;;;;;29.83;24.83;;;;;;;9.43;100.00;101496.69;10238320;28;20140;-73
2023/03/19 18:49:24;;;;;;;32.45;23.50;;;;;;;9.26;100.00;101505.34;10224683;28;20054;-73
2023/03/19 18:54:21;;;;;;;30.33;22.80;;;;;;;9.27;100.00;101507.78;10213448;28;20092;-73
2023/03/19 18:59:29;;;;;;;28.45;22.23;;;;;;;9.16;100.00;101510.91;10218387;28;20179;-73
2023/03/19 19:04:26;;;;;;;31.98;24.50;;;;;;;9.10;100.00;101528.41;10218688;28;20045;-73
2023/03/19 19:09:25;;;;;;;30.67;23.58;;;;;;;9.19;100.00;101534.88;10219081;28;20049;-73
2023/03/19 19:14:23;;;;;;;28.38;22.67;;;;;;;9.39;100.00;101547.50;10216175;28;20140;-73
2023/03/19 19:19:22;;;;;;;29.25;24.63;;;;;;;9.40;100.00;101539.03;10211755;28;20061;-73
2023/03/19 19:24:20;;;;;;;30.40;21.58;;;;;;;9.32;100.00;101531.47;10205041;28;20042;-73
2023/03/19 19:29:23;;;;;;;27.63;22.65;;;;;;;9.20;100.00;101550.97;10215212;28;20606;-74
2023/03/19 19:34:20;;;;;;;28.67;23.75;;;;;;;9.14;100.00;101557.56;10217677;28;20051;-74
2023/03/19 19:39:17;;;;;;;32.75;24.20;;;;;;;9.04;100.00;101566.66;10215487;28;20579;-73
2023/03/19 19:44:21;;;;;;;37.72;24.85;;;;;;;9.24;100.00;101579.31;10210351;28;20543;-73
2023/03/19 19:49:18;;;;;;;32.45;24.50;;;;;;;9.33;100.00;101582.25;10209908;28;20088;-74
2023/03/19 19:54:14;;;;;;;31.77;24.13;;;;;;;9.30;100.00;101599.16;10200366;28;20130;-74
2023/03/19 19:59:14;;;;;;;38.35;25.92;;;;;;;9.19;100.00;101611.28;10211980;28;20045;-75
2023/03/19 20:04:13;;;;;;;38.55;27.02;;;;;;;9.06;100.00;101610.84;10218122;28;20045;-74
2023/03/19 20:09:10;;;;;;;38.72;25.48;;;;;;;8.92;100.00;101609.88;10219583;28;20049;-72
2023/03/19 20:14:12;;;;;;;42.45;28.13;;;;;;;8.84;100.00;101619.50;10217333;28;20054;-73
2023/03/19 20:19:16;;;;;;;42.03;25.47;;;;;;;8.60;100.00;101619.34;10215602;28;20639;-73
2023/03/19 20:24:12;;;;;;;47.25;30.45;;;;;;;8.68;100.00;101625.31;10210213;28;20060;-72
2023/03/19 20:29:14;;;;;;;48.22;29.30;;;;;;;8.53;100.00;101629.75;10205875;28;20387;-72
2023/03/19 20:34:13;;;;;;;49.70;30.67;;;;;;;8.48;100.00;101635.25;10198194;28;20763;-72
2023/03/19 20:39:24;;;;;;;48.30;29.98;;;;;;;8.44;100.00;101636.91;10215917;28;20854;-73
2023/03/19 20:44:24;;;;;;;65.18;34.55;;;;;;;8.66;100.00;101638.41;10211260;28;20140;-74
2023/03/19 20:49:21;;;;;;;52.00;31.20;;;;;;;8.54;100.00;101647.75;10195735;28;20095;-71
2023/03/19 20:54:17;;;;;;;66.65;35.40;;;;;;;8.23;100.00;101642.41;10211971;28;20065;-73
2023/03/19 20:59:14;;;;;;;46.17;28.52;;;;;;;8.37;100.00;101647.25;10208444;28;20045;-72
2023/03/19 21:04:17;;;;;;;45.30;26.50;;;;;;;8.47;100.00;101650.00;10225969;28;20749;-72
2023/03/19 21:09:14;;;;;;;40.95;25.42;;;;;;;8.33;100.00;101648.91;10216537;28;20330;-74
2023/03/19 21:14:17;;;;;;;42.50;24.77;;;;;;;8.06;100.00;101663.75;10211949;28;20128;-75
2023/03/19 21:19:14;;;;;;;40.78;25.42;;;;;;;8.00;100.00;101662.94;10201736;28;20060;-79
2023/03/19 21:24:18;;;;;;;42.20;24.33;;;;;;;7.91;100.00;101661.06;10223026;28;20050;-79
2023/03/19 21:29:23;;;;;;;39.00;24.70;;;;;;;7.96;100.00;101670.03;10201873;28;20779;-79
2023/03/19 21:34:19;;;;;;;33.22;20.98;;;;;;;7.82;100.00;101671.72;10218040;28;20053;-77
2023/03/19 21:39:16;;;;;;;35.17;19.90;;;;;;;7.91;100.00;101661.06;10207990;28;20037;-78
2023/03/19 21:44:18;;;;;;;36.80;22.13;;;;;;;7.93;100.00;101664.31;10200633;28;20115;-78
2023/03/19 21:49:16;;;;;;;42.30;22.25;;;;;;;7.88;100.00;101656.19;10197556;28;20104;-76
2023/03/19 21:54:14;;;;;;;33.70;18.85;;;;;;;7.90;100.00;101664.88;10192316;28;20042;-77
2023/03/19 21:59:17;;;;;;;31.73;18.52;;;;;;;7.99;100.00;101663.22;10194840;28;20038;-76
2023/03/19 22:04:14;;;;;;;33.65;19.88;;;;;;;8.15;100.00;101672.16;10212865;28;20412;-75
2023/03/19 22:09:11;;;;;;;36.40;19.20;;;;;;;7.94;100.00;101655.06;10209051;28;20048;-75
2023/03/19 22:14:37;;;;;;;34.83;19.85;;;;;;;8.14;100.00;101657.72;10221985;28;20689;-78
2023/03/19 22:19:33;;;;;;;41.25;22.17;;;;;;;8.11;100.00;101650.09;10245757;28;20099;-77
2023/03/19 22:24:30;;;;;;;39.35;21.52;;;;;;;8.10;100.00;101653.94;10273996;28;20414;-78
2023/03/19 22:29:26;;;;;;;37.13;19.88;;;;;;;8.01;100.00;101647.44;10272450;28;20041;-79
2023/03/19 22:34:26;;;;;;;39.00;21.00;;;;;;;7.89;100.00;101658.63;10272498;28;20052;-78
2023/03/19 22:39:23;;;;;;;38.33;20.65;;;;;;;7.94;100.00;101652.34;10267358;28;20401;-77